Latest Coastal Weather Observations for Neptune Island

IDT60701

Issued at 9:22 pm EDT Monday 5 December 2016 (issued every 10 minutes, with the page automatically refreshed every 10 minutes)

About coastal observations | Map of coastal stations | Coastal observations for TAS | Marine services | Other Formats
Station Details ID: 018115 Name: NEPTUNE ISLAND Lat: -35.34 Lon: 136.12 Height: 32.0 m
Data from the previous 72 hours. | See also: Recent months at Neptune Island
Date/Time
EDT
Temp
°C
Wind Pressure Rain since
9am
mm
Weather Cloud Vis
km
Sea
Height
m
Swell
Dir  Spd
kts
Gust
kts
hPa Trend Height
m
Period
s
Dir
05/09:00pm 15.2 S 14 16 1014.3 - 0.0 - - - - - - -
05/08:30pm 15.7 S 15 17 1014.0 - 0.0 - - - - - - -
05/08:00pm 15.9 S 14 16 1013.6 - 0.0 - - - - - - -
05/07:30pm 16.3 S 15 17 1013.2 - 0.0 - - - - - - -
05/07:00pm 16.4 S 17 19 1012.8 - 0.0 - - - - - - -
05/06:30pm 16.5 S 13 15 1013.5 - 0.0 - - - - - - -
05/06:00pm 16.9 S 12 15 1013.6 - 0.0 - - - - - - -
05/05:30pm 17.6 S 10 12 1013.8 - 0.0 - - - - - - -
05/05:00pm 17.3 S 10 13 1013.7 - 0.0 - - - - - - -
05/04:30pm 17.6 S 9 11 1014.0 - 0.0 - - - - - - -
05/04:00pm 17.1 SSW 6 8 1014.8 - 0.0 - - - - - - -
05/03:30pm 17.1 S 6 7 1014.9 - 0.0 - - - - - - -
05/03:00pm 17.0 SSW 5 7 1015.0 - 0.0 - - - - - - -
05/02:30pm 17.0 S 5 7 1015.2 - 0.0 - - - - - - -
05/02:00pm 17.7 SSE 7 9 1015.0 - 0.0 - - - - - - -
05/01:30pm 17.3 SSE 8 11 1015.0 - 0.0 - - - - - - -
05/01:00pm 17.1 S 10 13 1015.0 - 0.0 - - - - - - -
05/12:30pm 17.8 S 11 13 1014.7 - 0.0 - - - - - - -
05/12:00pm 17.5 S 9 11 1015.1 - 0.0 - - - - - - -
05/11:30am 17.1 S 11 14 1015.2 - 0.0 - - - - - - -
05/11:00am 17.2 S 13 16 1014.8 - 0.0 - - - - - - -
05/10:30am 15.4 S 15 19 1014.2 - 0.0 - - - - - - -
05/10:00am 15.8 S 14 17 1014.7 - 0.0 - - - - - - -
05/09:30am 15.6 S 13 16 1015.3 - 0.2 - - - - - - -
05/09:00am 15.8 SSW 15 18 1014.8 - 0.2 - - - - - - -
05/08:30am 15.1 SSW 15 18 1014.1 - 0.2 - - - - - - -
05/08:00am 14.9 SSW 16 19 1013.3 - 0.2 - - - - - - -
05/07:30am 14.9 SSW 15 19 1013.3 - 0.2 - - - - - - -
05/07:00am 14.8 SSW 13 15 1013.3 - 0.2 - - - - - - -
05/06:30am 14.4 SSW 15 17 1013.0 - 0.2 - - - - - - -
05/06:00am 14.5 SSW 16 21 1012.7 - 0.2 - - - - - - -
05/05:30am 14.5 SSW 15 18 1012.7 - 0.2 - - - - - - -
05/05:00am 14.5 SSW 17 20 1012.1 - 0.2 - - - - - - -
05/04:30am 15.1 SW 14 17 1011.9 - 0.2 - - - - - - -
05/04:00am 15.2 SW 17 19 1012.0 - 0.2 - - - - - - -
05/03:30am 15.4 SW 17 20 1011.5 - 0.2 - - - - - - -
05/03:00am 15.4 SW 18 21 1011.1 - 0.2 - - - - - - -
05/02:30am 15.4 SW 20 22 1010.7 - 0.2 - - - - - - -
05/02:00am 15.3 SW 20 24 1010.6 - 0.2 - - - - - - -
05/01:30am 15.5 SW 22 27 1010.4 - 0.2 - - - - - - -
05/01:00am 15.7 SW 22 27 1010.4 - 0.2 - - - - - - -
05/12:30am 16.0 SW 25 28 1010.3 - 0.2 - - - - - - -
05/12:00am 15.8 SW 22 26 1010.2 - 0.2 - - - - - - -
 
Date/Time
EDT
Temp
°C
Wind Pressure Rain since
9am
mm
Weather Cloud Vis
km
Sea
Height
m
Swell
Dir  Spd
kts
Gust
kts
hPa Trend Height
m
Period
s
Dir
04/11:30pm 16.1 SW 22 27 1010.1 - 0.2 - - - - - - -
04/11:00pm 16.1 SW 24 28 1009.7 - 0.2 - - - - - - -
04/10:30pm 16.5 SW 23 27 1009.4 - 0.2 - - - - - - -
04/10:00pm 16.3 SW 26 31 1008.4 - 0.2 - - - - - - -
04/09:30pm 16.6 SW 26 31 1007.9 - 0.2 - - - - - - -
04/09:00pm 16.9 SW 22 26 1007.5 - 0.2 - - - - - - -
04/08:30pm 17.3 SW 23 27 1006.3 - 0.2 - - - - - - -
04/08:00pm 17.6 SW 26 30 1005.6 - 0.2 - - - - - - -
04/07:30pm 17.9 SW 25 29 1004.7 - 0.2 - - - - - - -
04/07:00pm 18.9 WSW 22 26 1004.3 - 0.2 - - - - - - -
04/06:30pm 19.9 W 22 25 1003.3 - 0.2 - - - - - - -
04/06:00pm 20.4 W 27 30 1002.0 - 0.2 - - - - - - -
04/05:30pm 21.1 W 28 33 1001.5 - 0.2 - - - - - - -
04/05:00pm 22.2 WNW 28 34 1001.3 - 0.2 - - - - - - -
04/04:30pm 23.6 NW 22 27 1000.9 - 0.2 - - - - - - -
04/04:00pm 26.1 NNW 15 20 1001.3 - 0.2 - - - - - - -
04/03:30pm 22.5 NNE 11 13 1001.7 - 0.2 - - - - - - -
04/03:00pm 22.3 NE 10 13 1001.9 - 0.2 - - - - - - -
04/02:30pm 20.4 ENE 13 16 1001.7 - 0.2 - - - - - - -
04/02:00pm 20.1 ENE 10 13 1002.4 - 0.2 - - - - - - -
04/01:30pm 19.8 ENE 11 14 1002.4 - 0.2 - - - - - - -
04/01:00pm 18.6 E 12 14 1002.8 - 0.2 - - - - - - -
04/12:30pm 19.5 ENE 10 13 1003.7 - 0.2 - - - - - - -
04/12:00pm 21.2 N 5 8 1003.6 - 0.2 - - - - - - -
04/11:30am 18.7 SSE 6 7 1004.1 - 0.2 - - - - - - -
04/11:00am 18.7 SW 10 14 1005.1 - 0.2 - - - - - - -
04/10:30am 18.2 WSW 22 27 1006.2 - 0.0 - - - - - - -
04/10:00am 19.8 WNW 17 30 1004.7 - 0.0 - - - - - - -
04/09:57am 19.5 NW 17 30 1004.6 - 0.0 - - - - - - -
04/09:56am 19.7 NNW 16 30 1004.5 - 0.0 - - - - - - -
04/09:30am 19.4 N 17 18 1003.2 - 0.0 - - - - - - -
04/09:00am 18.6 NNE 16 19 1003.4 - 0.0 - - - - - - -
04/08:30am 18.0 NNE 16 19 1003.5 - 0.0 - - - - - - -
04/08:00am 17.9 NE 12 16 1003.7 - 0.0 - - - - - - -
04/07:30am 18.0 NNE 18 21 1003.9 - 0.0 - - - - - - -
04/07:00am 17.8 NNE 21 25 1004.1 - 0.0 - - - - - - -
04/06:30am 17.6 NNE 21 26 1003.7 - 0.0 - - - - - - -
04/06:00am 17.3 NNE 20 32 1003.2 - 0.0 - - - - - - -
04/05:57am 17.3 NNE 20 30 1003.3 - 0.0 - - - - - - -
04/05:30am 17.1 NNE 17 20 1003.7 - 0.0 - - - - - - -
04/05:00am 16.8 NNE 17 21 1003.5 - 0.0 - - - - - - -
04/04:30am 16.7 NE 15 20 1003.9 - 0.0 - - - - - - -
04/04:00am 16.7 NE 13 19 1004.1 - 0.0 - - - - - - -
04/03:30am 16.8 NE 16 19 1005.6 - 0.0 - - - - - - -
04/03:00am 16.8 ENE 19 21 1005.6 - 0.0 - - - - - - -
04/02:30am 16.8 ENE 17 19 1005.7 - 0.0 - - - - - - -
04/02:00am 16.9 ENE 17 19 1006.2 - 0.0 - - - - - - -
04/01:30am 17.0 ENE 19 21 1006.4 - 0.0 - - - - - - -
04/01:00am 17.1 ENE 16 18 1007.5 - 0.0 - - - - - - -
04/12:30am 17.1 ENE 14 16 1008.2 - 0.0 - - - - - - -
04/12:00am 17.0 ENE 15 17 1008.2 - 0.0 - - - - - - -
 
Date/Time
EDT
Temp
°C
Wind Pressure Rain since
9am
mm
Weather Cloud Vis
km
Sea
Height
m
Swell
Dir  Spd
kts
Gust
kts
hPa Trend Height
m
Period
s
Dir
03/11:30pm 17.0 E 13 14 1008.5 - 0.0 - - - - - - -
03/11:00pm 16.8 ESE 12 14 1008.5 - 0.0 - - - - - - -
03/10:30pm 16.8 E 12 14 1009.3 - 0.0 - - - - - - -
03/10:00pm 16.8 E 12 14 1009.5 - 0.0 - - - - - - -
03/09:30pm 16.9 E 11 12 1009.8 - 0.0 - - - - - - -
03/09:00pm 16.8 ESE 11 13 1010.1 - 0.0 - - - - - - -
03/08:30pm 17.2 SE 10 12 1010.6 - 0.0 - - - - - - -
03/08:00pm 17.4 SE 10 13 1010.6 - 0.0 - - - - - - -
03/07:30pm 17.2 SSE 11 14 1010.7 - 0.0 - - - - - - -
03/07:00pm 17.5 SSE 11 13 1010.5 - 0.0 - - - - - - -
03/06:30pm 18.0 S 11 13 1010.6 - 0.0 - - - - - - -
03/06:00pm 18.5 S 11 12 1010.9 - 0.0 - - - - - - -
03/05:30pm 18.3 SSE 11 13 1011.1 - 0.0 - - - - - - -
03/05:00pm 18.9 SSE 11 14 1011.2 - 0.0 - - - - - - -
03/04:30pm 19.7 SE 11 13 1011.4 - 0.0 - - - - - - -
03/04:00pm 19.3 SE 8 9 1012.1 - 0.0 - - - - - - -
03/03:30pm 18.8 ENE 8 10 1012.4 - 0.0 - - - - - - -
03/03:00pm 20.1 ESE 9 11 1012.2 - 0.0 - - - - - - -
03/02:30pm 18.8 E 10 12 1012.3 - 0.0 - - - - - - -
03/02:00pm 18.8 E 11 13 1012.7 - 0.0 - - - - - - -
03/01:30pm 19.3 ESE 11 13 1012.9 - 0.0 - - - - - - -
03/01:00pm 20.0 E 11 14 1013.2 - 0.0 - - - - - - -
03/12:30pm 18.3 E 13 15 1013.1 - 0.0 - - - - - - -
03/12:00pm 18.5 E 13 15 1013.5 - 0.0 - - - - - - -
03/11:30am 18.2 E 14 17 1013.6 - 0.0 - - - - - - -
03/11:00am 17.9 E 14 17 1013.5 - 0.0 - - - - - - -
03/10:30am 17.5 E 15 19 1013.7 - 0.0 - - - - - - -
03/10:00am 17.0 E 16 19 1013.6 - 0.0 - - - - - - -
03/09:30am 16.5 E 14 17 1013.7 - 0.0 - - - - - - -
03/09:00am 16.1 E 14 17 1013.9 - 0.0 - - - - - - -
03/08:30am 15.2 E 14 18 1013.8 - 0.0 - - - - - - -
03/08:00am 15.0 ESE 14 18 1013.8 - 0.0 - - - - - - -
03/07:30am 14.2 ESE 13 17 1013.7 - 0.0 - - - - - - -
03/07:00am 13.7 ESE 12 14 1013.8 - 0.0 - - - - - - -
03/06:30am 13.3 ESE 12 15 1013.6 - 0.0 - - - - - - -
03/06:00am 13.4 ESE 13 16 1013.3 - 0.0 - - - - - - -
03/05:30am 13.3 ESE 13 16 1013.1 - 0.0 - - - - - - -
03/05:00am 13.4 ESE 14 17 1012.9 - 0.0 - - - - - - -
03/04:30am 13.4 ESE 13 16 1013.2 - 0.0 - - - - - - -
03/04:00am 13.5 ESE 14 17 1013.4 - 0.0 - - - - - - -
03/03:30am 13.6 ESE 14 18 1013.4 - 0.0 - - - - - - -
03/03:00am 13.6 ESE 14 19 1013.7 - 0.0 - - - - - - -
03/02:30am 13.7 ESE 15 19 1013.9 - 0.0 - - - - - - -
03/02:00am 13.8 ESE 15 18 1014.0 - 0.0 - - - - - - -
03/01:30am 13.9 ESE 15 18 1014.2 - 0.0 - - - - - - -
03/01:00am 14.0 ESE 16 18 1014.7 - 0.0 - - - - - - -
03/12:30am 13.9 ESE 17 19 1014.7 - 0.0 - - - - - - -
03/12:00am 14.0 SE 17 21 1014.8 - 0.0 - - - - - - -
 
Date/Time
EDT
Temp
°C
Wind Pressure Rain since
9am
mm
Weather Cloud Vis
km
Sea
Height
m
Swell
Dir  Spd
kts
Gust
kts
hPa Trend Height
m
Period
s
Dir
02/11:30pm 14.0 SE 18 22 1014.8 - 0.0 - - - - - - -
02/11:00pm 14.3 SE 19 22 1015.0 - 0.0 - - - - - - -
02/10:30pm 14.5 SSE 17 21 1015.1 - 0.0 - - - - - - -
02/10:00pm 14.4 SSE 18 21 1015.0 - 0.0 - - - - - - -

Other Formats:

Comma delimited format used in spreadsheet applications
http://www.bom.gov.au/fwo/IDT60701/IDT60701.94804.axf

JavaScript Object Notation format (JSON) in row-major order
http://www.bom.gov.au/fwo/IDT60701/IDT60701.94804.json